Řízení letového provozu České republiky
Letiste: LKVO Aktualizace: 20.07.2018 14:00:07  UTC
 METAR LKVO 20.07. 14:00 ...
METAR LKVO 201400Z 35006KT 270V080 CAVOK 28/06 Q1014=